Time;durP1;ratioP1;P1;durP2;ratioP2;P2;SDS_P1;SDS_P2;PMS_P1;PMS_P2;Temp;Humidity;BMP_temperature;BMP_pressure;BME280_temperature;BME280_humidity;BME280_pressure;Samples;Min_cycle;Max_cycle;Signal;HPM_P1;HPM_P2
2021/01/03 04:14:14;;;;;;;76.77;40.30;;;3.00;99.90;;;;;;6063493;23;20456;-83
2021/01/03 07:59:19;;;;;;;;;;;;;;;;;;;;;
2021/01/03 08:02:16;;;;;;;36.20;18.63;;;3.30;80.00;;;;;;5886619;24;20937;-84
2021/01/03 08:08:27;;;;;;;36.63;20.10;;;3.30;78.60;;;;;;6022921;23;20472;-85
2021/01/03 08:11:36;;;;;;;29.77;18.03;;;3.30;77.50;;;;;;6047840;23;20778;-84
2021/01/03 08:14:32;;;;;;;25.87;15.00;;;3.30;76.70;;;;;;6035565;23;20516;-83
2021/01/03 08:47:38;;;;;;;26.63;14.40;;;3.40;69.80;;;;;;5732590;24;20785;-86
2021/01/03 08:53:51;;;;;;;25.40;15.40;;;3.40;66.40;;;;;;6026590;23;20453;-82
2021/01/03 09:29:56;;;;;;;;;;;;;;;;;;;;;
2021/01/03 09:39:53;;;;;;;15.37;10.73;;;3.60;57.00;;;;;;5834125;23;21011;-83
2021/01/03 09:42:54;;;;;;;23.33;14.40;;;3.60;56.40;;;;;;5858423;24;20910;-83
2021/01/03 11:52:23;;;;;;;15.20;9.20;;;4.00;39.70;;;;;;5883179;24;20513;-82
2021/01/03 11:55:13;;;;;;;;;;;;;;;;;;;;;
2021/01/03 11:58:16;;;;;;;;;;;;;;;;;;;;;
2021/01/03 12:01:02;;;;;;;;;;;;;;;;;;;;;
2021/01/03 12:04:00;;;;;;;9.53;5.33;;;4.00;39.70;;;;;;6101319;23;20407;-83
2021/01/03 12:07:09;;;;;;;12.07;8.20;;;4.00;39.50;;;;;;6093504;23;20400;-83
2021/01/03 12:10:01;;;;;;;;;;;;;;;;;;;;;
2021/01/03 12:15:45;;;;;;;;;;;;;;;;;;;;;
2021/01/03 12:18:14;;;;;;;9.93;6.70;;;4.10;39.00;;;;;;6152137;23;20414;-82
2021/01/03 12:21:01;;;;;;;;;;;;;;;;;;;;;
2021/01/03 12:23:31;;;;;;;10.30;6.20;;;4.10;39.80;;;;;;6155954;23;20864;-82
2021/01/03 12:26:16;;;;;;;10.20;6.73;;;4.10;39.70;;;;;;6166624;23;20406;-81
2021/01/03 12:29:06;;;;;;;8.03;5.17;;;4.10;39.70;;;;;;6156532;23;20408;-82
2021/01/03 12:31:42;;;;;;;12.47;7.80;;;4.10;39.20;;;;;;6141715;23;20450;-84
2021/01/03 12:34:17;;;;;;;12.13;8.27;;;4.00;39.70;;;;;;6156283;23;20452;-82
2021/01/03 12:37:09;;;;;;;10.97;6.50;;;4.10;39.70;;;;;;6166651;23;20880;-82
2021/01/03 12:39:54;;;;;;;16.13;9.87;;;4.00;38.00;;;;;;6151625;23;20418;-82
2021/01/03 12:42:34;;;;;;;8.17;5.57;;;4.20;39.80;;;;;;6140323;23;20761;-82
2021/01/03 12:45:18;;;;;;;;;;;;;;;;;;;;;
2021/01/03 12:47:55;;;;;;;15.90;9.60;;;4.10;37.90;;;;;;6155848;23;20407;-83
2021/01/03 12:53:30;;;;;;;11.63;8.10;;;4.10;39.70;;;;;;5970753;23;20524;-81
2021/01/03 12:56:22;;;;;;;11.30;8.00;;;4.00;38.70;;;;;;6162338;23;20418;-82
2021/01/03 12:58:58;;;;;;;10.90;6.67;;;4.00;39.70;;;;;;6156984;23;20437;-82
2021/01/03 13:01:29;;;;;;;10.23;6.83;;;4.00;39.30;;;;;;6165738;23;20413;-82
2021/01/03 13:04:00;;;;;;;7.50;4.87;;;4.00;39.70;;;;;;6156290;23;20437;-82
2021/01/03 13:06:26;;;;;;;12.23;8.47;;;4.00;39.70;;;;;;6153070;23;20798;-82
2021/01/03 13:08:54;;;;;;;7.67;4.33;;;4.10;39.70;;;;;;6155653;23;20434;-81
2021/01/03 13:11:28;;;;;;;12.60;8.20;;;4.00;39.10;;;;;;6165178;23;20418;-82
2021/01/03 13:13:54;;;;;;;9.97;6.07;;;4.10;39.70;;;;;;6164676;23;20445;-81
2021/01/03 13:16:21;;;;;;;10.50;7.07;;;4.10;38.30;;;;;;6154815;23;20732;-82
2021/01/03 13:18:56;;;;;;;12.50;8.13;;;4.10;39.70;;;;;;6165474;23;20404;-82
2021/01/03 13:21:27;;;;;;;12.90;7.77;;;4.00;39.70;;;;;;6155604;23;20401;-82
2021/01/03 13:24:16;;;;;;;16.97;8.80;;;3.90;39.60;;;;;;6155908;23;20405;-82
2021/01/03 13:27:23;;;;;;;;;;;;;;;;;;;;;
2021/01/03 13:30:07;;;;;;;14.23;8.67;;;4.00;39.70;;;;;;6044343;23;20424;-82
2021/01/03 13:32:53;;;;;;;11.83;7.60;;;4.10;39.70;;;;;;6070717;23;20894;-82
2021/01/03 13:35:31;;;;;;;;;;;;;;;;;;;;;
2021/01/03 13:38:17;;;;;;;14.13;8.37;;;4.00;39.80;;;;;;6157885;23;20414;-82
2021/01/03 13:40:47;;;;;;;10.23;6.00;;;4.00;39.70;;;;;;6165445;23;20414;-82
2021/01/03 13:43:17;;;;;;;14.50;9.20;;;3.90;39.60;;;;;;6155231;23;20905;-81
2021/01/03 13:46:00;;;;;;;11.80;7.37;;;4.00;39.70;;;;;;6164273;23;20414;-81
2021/01/03 13:48:26;;;;;;;16.43;5.20;;;4.00;39.70;;;;;;6155750;23;20465;-82
2021/01/03 13:51:11;;;;;;;10.17;6.67;;;4.00;39.70;;;;;;6154814;23;20405;-81
2021/01/03 13:53:39;;;;;;;11.37;8.10;;;4.10;39.80;;;;;;6165498;23;20449;-82
2021/01/03 13:56:06;;;;;;;11.70;7.47;;;4.00;39.70;;;;;;6155888;23;20402;-83
2021/01/03 13:58:39;;;;;;;10.83;7.73;;;4.00;40.20;;;;;;6156329;23;20402;-82
2021/01/03 14:01:08;;;;;;;13.73;8.67;;;4.00;39.70;;;;;;6154335;23;20540;-82
2021/01/03 14:03:41;;;;;;;13.20;9.23;;;4.00;39.70;;;;;;6162633;23;20421;-82
2021/01/03 14:06:28;;;;;;;;;;;;;;;;;;;;;
2021/01/03 14:08:56;;;;;;;14.13;8.50;;;4.00;40.80;;;;;;6141380;23;20413;-81
2021/01/03 14:11:43;;;;;;;12.73;6.57;;;4.00;39.70;;;;;;6154387;23;20408;-82
2021/01/03 14:14:17;;;;;;;16.23;10.10;;;3.90;39.60;;;;;;6163898;23;20508;-82
2021/01/03 14:16:56;;;;;;;;;;;;;;;;;;;;;
2021/01/03 14:19:39;;;;;;;;;;;;;;;;;;;;;
2021/01/03 14:22:11;;;;;;;14.90;9.87;;;4.00;40.80;;;;;;6153144;23;20409;-82
2021/01/03 14:24:40;;;;;;;13.03;8.50;;;4.00;39.70;;;;;;6153704;23;20413;-82
2021/01/03 14:27:12;;;;;;;13.87;9.70;;;4.00;40.30;;;;;;6154059;23;20456;-82
2021/01/03 14:29:47;;;;;;;12.60;8.77;;;4.00;41.10;;;;;;6152752;23;20407;-82
2021/01/03 14:32:21;;;;;;;14.90;9.80;;;4.00;40.20;;;;;;6163195;23;20463;-84
2021/01/03 14:35:00;;;;;;;10.80;6.67;;;4.00;41.10;;;;;;6165056;23;20488;-81
2021/01/03 14:37:40;;;;;;;15.63;9.13;;;4.00;39.70;;;;;;6155476;23;20768;-82
2021/01/03 14:43:25;;;;;;;12.50;7.97;;;4.00;39.70;;;;;;6115472;23;20424;-83
2021/01/03 14:46:04;;;;;;;12.80;7.93;;;4.10;40.40;;;;;;6154468;23;20402;-82
2021/01/03 14:48:55;;;;;;;9.83;4.93;;;4.00;40.50;;;;;;6166034;23;20406;-82
2021/01/03 14:51:34;;;;;;;10.93;6.37;;;3.90;42.50;;;;;;6149434;23;20417;-82
2021/01/03 14:54:42;;;;;;;14.03;9.20;;;3.90;43.10;;;;;;6165699;23;20760;-82
2021/01/03 14:57:37;;;;;;;12.10;8.20;;;3.80;44.00;;;;;;6165377;23;20449;-82
2021/01/03 15:00:10;;;;;;;19.20;12.67;;;3.90;47.50;;;;;;6161255;23;21188;-82
2021/01/03 15:03:34;;;;;;;;;;;;;;;;;;;;;
2021/01/03 15:06:41;;;;;;;14.07;9.20;;;3.80;49.20;;;;;;6033126;23;20822;-82
2021/01/03 15:09:20;;;;;;;;;;;;;;;;;;;;;
2021/01/03 15:15:52;;;;;;;;;;;;;;;;;;;;;
2021/01/03 15:18:47;;;;;;;15.63;9.30;;;3.60;56.40;;;;;;6124144;23;20421;-82
2021/01/03 15:25:13;;;;;;;15.73;9.60;;;3.50;56.30;;;;;;5965419;23;20504;-82
2021/01/03 15:27:56;;;;;;;13.37;7.93;;;3.40;57.90;;;;;;6034017;23;20424;-82
2021/01/03 15:30:32;;;;;;;18.40;12.43;;;3.40;59.30;;;;;;6015540;23;20432;-82
2021/01/03 15:33:31;;;;;;;15.60;9.53;;;3.40;60.10;;;;;;6067557;23;20484;-82
2021/01/03 15:36:08;;;;;;;22.43;11.80;;;3.40;59.20;;;;;;6163595;23;20445;-82
2021/01/03 15:38:41;;;;;;;10.07;6.50;;;3.40;59.10;;;;;;6163874;23;20420;-82
2021/01/03 15:45:07;;;;;;;10.37;7.30;;;3.40;59.00;;;;;;6086860;23;20426;-83
2021/01/03 15:47:49;;;;;;;13.47;7.70;;;3.40;58.00;;;;;;6145968;23;20409;-82
2021/01/03 15:50:15;;;;;;;15.70;7.27;;;3.40;57.10;;;;;;6163492;23;20420;-82
2021/01/03 15:53:11;;;;;;;15.97;9.77;;;3.40;56.30;;;;;;6163815;23;20742;-82
2021/01/03 15:55:49;;;;;;;11.90;8.10;;;3.50;56.30;;;;;;6163981;23;20508;-83
2021/01/03 15:58:20;;;;;;;19.50;7.37;;;3.50;54.60;;;;;;6164894;23;20928;-82
2021/01/03 16:00:58;;;;;;;;;;;;;;;;;;;;;
2021/01/03 16:03:29;;;;;;;18.63;11.53;;;3.50;56.10;;;;;;6159360;23;20406;-82
2021/01/03 16:05:57;;;;;;;15.27;8.40;;;3.40;57.50;;;;;;6165077;23;20410;-82
2021/01/03 16:08:25;;;;;;;17.20;9.00;;;3.40;56.30;;;;;;6155240;23;20410;-82
2021/01/03 16:10:52;;;;;;;15.97;10.07;;;3.40;57.00;;;;;;6155726;23;20402;-81
2021/01/03 16:13:18;;;;;;;11.23;5.57;;;3.40;56.30;;;;;;6156529;23;20409;-81
2021/01/03 16:16:13;;;;;;;12.63;6.97;;;3.40;55.90;;;;;;6154678;23;20402;-81
2021/01/03 16:18:55;;;;;;;14.70;7.90;;;3.40;55.50;;;;;;6071047;23;20906;-81
2021/01/03 16:21:56;;;;;;;16.23;9.00;;;3.50;54.20;;;;;;6154275;23;20451;-82
2021/01/03 16:24:31;;;;;;;14.00;8.17;;;3.40;55.20;;;;;;6165947;23;20910;-82
2021/01/03 16:27:06;;;;;;;11.37;6.47;;;3.50;54.30;;;;;;6156324;23;20407;-82
2021/01/03 16:29:49;;;;;;;12.50;6.43;;;3.50;54.90;;;;;;6154727;23;20404;-82
2021/01/03 16:32:42;;;;;;;14.50;7.30;;;3.50;52.90;;;;;;6156914;23;20448;-81
2021/01/03 16:39:24;;;;;;;;;;;;;;;;;;;;;
2021/01/03 16:42:39;;;;;;;12.90;9.37;;;3.60;53.40;;;;;;6010761;23;20807;-81
2021/01/03 16:45:30;;;;;;;;;;;;;;;;;;;;;
2021/01/03 16:48:45;;;;;;;;;;;;;;;;;;;;;
2021/01/03 16:51:45;;;;;;;10.97;7.10;;;3.50;55.20;;;;;;6166426;23;20411;-82
2021/01/03 16:55:10;;;;;;;;;;;;;;;;;;;;;
2021/01/03 17:04:49;;;;;;;16.37;9.67;;;3.50;55.10;;;;;;5907159;24;20417;-84
2021/01/03 17:50:36;;;;;;;;;;;;;;;;;;;;;
2021/01/03 19:09:51;;;;;;;;;;;;;;;;;;;;;
2021/01/03 20:05:43;;;;;;;22.03;20.17;;;2.50;99.90;;;;;;5959513;24;20183;-83
2021/01/03 20:11:30;;;;;;;35.60;32.90;;;2.50;99.90;;;;;;5979686;24;20427;-83
2021/01/03 20:27:37;;;;;;;21.13;19.30;;;2.50;99.90;;;;;;6036364;23;20409;-83
2021/01/03 20:34:10;;;;;;;;;;;;;;;;;;;;;
